createdAt,value
2016-11-12T00:00:26.781Z,0
2016-11-12T00:01:26.789Z,0
2016-11-12T00:02:26.806Z,0
2016-11-12T00:03:27.018Z,0
2016-11-12T00:04:26.934Z,0
2016-11-12T00:05:26.945Z,0
2016-11-12T00:06:27.033Z,0
2016-11-12T00:07:27.077Z,0
2016-11-12T00:08:27.213Z,0
2016-11-12T00:09:27.706Z,0
2016-11-12T00:10:27.201Z,0
2016-11-12T00:11:27.852Z,0
2016-11-12T00:12:27.931Z,0
2016-11-12T00:13:28.057Z,0
2016-11-12T00:14:27.474Z,0
2016-11-12T00:15:28.189Z,0
2016-11-12T00:16:27.551Z,0
2016-11-12T00:17:27.602Z,0
2016-11-12T00:18:27.635Z,0
2016-11-12T00:19:27.800Z,0
2016-11-12T00:20:27.727Z,0
2016-11-12T00:21:27.847Z,0
2016-11-12T00:22:27.875Z,0
2016-11-12T00:23:27.926Z,0
2016-11-12T00:24:28.049Z,0
2016-11-12T00:25:28.016Z,0
2016-11-12T00:26:28.008Z,0
2016-11-12T00:27:28.116Z,0
2016-11-12T00:28:28.201Z,0
2016-11-12T00:29:28.319Z,0
2016-11-12T00:30:28.259Z,0
2016-11-12T00:31:28.335Z,0
2016-11-12T00:32:28.928Z,0
2016-11-12T00:33:28.445Z,0
2016-11-12T00:34:28.583Z,0
2016-11-12T00:35:28.552Z,0
2016-11-12T00:36:28.603Z,0
2016-11-12T00:37:28.648Z,0
2016-11-12T00:38:29.199Z,0
2016-11-12T00:39:28.808Z,0
2016-11-12T00:40:29.868Z,0
2016-11-12T00:41:29.365Z,0
2016-11-12T00:42:28.945Z,0
2016-11-12T00:43:28.937Z,0
2016-11-12T00:44:29.098Z,0
2016-11-12T00:45:29.090Z,0
2016-11-12T00:46:29.141Z,0
2016-11-12T00:47:29.157Z,0
2016-11-12T00:48:29.206Z,0
2016-11-12T00:49:29.298Z,0
2016-11-12T00:50:29.457Z,0
2016-11-12T00:51:29.329Z,0
2016-11-12T00:52:29.398Z,0
2016-11-12T00:53:29.452Z,0
2016-11-12T00:54:29.519Z,0
2016-11-12T00:55:29.662Z,0
2016-11-12T00:56:29.642Z,0
2016-11-12T00:57:29.693Z,0
2016-11-12T00:58:30.215Z,0
2016-11-12T00:59:29.785Z,0
2016-11-12T01:00:29.942Z,0
2016-11-12T01:01:29.937Z,0
2016-11-12T01:02:29.940Z,0
2016-11-12T01:03:29.980Z,0
2016-11-12T01:04:30.051Z,0
2016-11-12T01:05:30.715Z,0
2016-11-12T01:06:30.137Z,0
2016-11-12T01:07:30.154Z,0
2016-11-12T01:08:30.219Z,0
2016-11-12T01:09:30.304Z,0
2016-11-12T01:10:31.012Z,0
2016-11-12T01:11:30.862Z,0
2016-11-12T01:12:30.393Z,0
2016-11-12T01:13:30.447Z,0
2016-11-12T01:14:31.603Z,0
2016-11-12T01:15:30.695Z,0
2016-11-12T01:16:30.656Z,0
2016-11-12T01:17:30.677Z,0
2016-11-12T01:18:30.751Z,0
2016-11-12T01:19:30.798Z,0
2016-11-12T01:20:31.478Z,0
2016-11-12T01:21:30.924Z,0
2016-11-12T01:22:30.938Z,0
2016-11-12T01:23:31.020Z,0
2016-11-12T01:24:31.094Z,0
2016-11-12T01:25:31.124Z,0
2016-11-12T01:26:31.235Z,0
2016-11-12T01:27:31.210Z,0
2016-11-12T01:28:31.283Z,0
2016-11-12T01:29:31.285Z,0
2016-11-12T01:30:31.306Z,0
2016-11-12T01:31:31.522Z,0
2016-11-12T01:32:31.583Z,0
2016-11-12T01:33:31.477Z,0
2016-11-12T01:34:31.568Z,0
2016-11-12T01:35:31.587Z,0
2016-11-12T01:36:31.786Z,0
2016-11-12T01:37:31.741Z,0
2016-11-12T01:38:31.780Z,0
2016-11-12T01:39:31.809Z,0
2016-11-12T01:40:32.422Z,0
2016-11-12T01:41:32.058Z,0
2016-11-12T01:42:31.945Z,0
2016-11-12T01:43:32.027Z,0
2016-11-12T01:44:32.567Z,0
2016-11-12T01:45:32.140Z,0
2016-11-12T01:46:32.331Z,0
2016-11-12T01:47:32.208Z,0
2016-11-12T01:48:32.286Z,0
2016-11-12T01:49:32.306Z,0
2016-11-12T01:50:32.418Z,0
2016-11-12T01:51:32.540Z,0
2016-11-12T01:52:32.504Z,0
2016-11-12T01:53:32.537Z,0
2016-11-12T01:54:32.632Z,0
2016-11-12T01:55:33.171Z,0
2016-11-12T01:56:33.287Z,0
2016-11-12T01:57:33.280Z,0
2016-11-12T01:58:32.772Z,0
2016-11-12T01:59:32.851Z,0
2016-11-12T02:00:32.890Z,0
2016-11-12T02:01:32.995Z,0
2016-11-12T02:02:33.093Z,0
2016-11-12T02:03:33.040Z,0
2016-11-12T02:04:33.120Z,0
2016-11-12T02:05:33.161Z,0
2016-11-12T02:06:33.206Z,0
2016-11-12T02:07:33.324Z,0
2016-11-12T02:08:33.304Z,0
2016-11-12T02:09:33.350Z,0
2016-11-12T02:10:33.399Z,0
2016-11-12T02:11:33.455Z,0
2016-11-12T02:12:33.591Z,0
2016-11-12T02:13:33.631Z,0
2016-11-12T02:14:33.619Z,0
2016-11-12T02:15:33.756Z,0
2016-11-12T02:16:33.688Z,0
2016-11-12T02:17:34.416Z,0
2016-11-12T02:18:33.808Z,0
2016-11-12T02:19:33.881Z,0
2016-11-12T02:20:33.935Z,0
2016-11-12T02:21:33.963Z,0
2016-11-12T02:22:34.139Z,0
2016-11-12T02:23:34.146Z,0
2016-11-12T02:24:34.619Z,0
2016-11-12T02:25:34.228Z,0
2016-11-12T02:26:34.236Z,0
2016-11-12T02:27:34.723Z,0
2016-11-12T02:28:34.309Z,0
2016-11-12T02:29:34.437Z,0
2016-11-12T02:30:34.486Z,0
2016-11-12T02:31:34.479Z,0
2016-11-12T02:32:34.544Z,0
2016-11-12T02:33:34.667Z,0
2016-11-12T02:34:34.661Z,0
2016-11-12T02:35:34.665Z,0
2016-11-12T02:36:34.732Z,0
2016-11-12T02:37:34.829Z,0
2016-11-12T02:38:34.982Z,0
2016-11-12T02:39:34.903Z,0
2016-11-12T02:40:34.979Z,0
2016-11-12T02:41:35.001Z,0
2016-11-12T02:42:35.057Z,0
2016-11-12T02:43:35.205Z,0
2016-11-12T02:44:35.721Z,0
2016-11-12T02:45:35.800Z,0
2016-11-12T02:46:35.290Z,0
2016-11-12T02:47:35.323Z,0
2016-11-12T02:48:35.451Z,0
2016-11-12T02:49:35.421Z,0
2016-11-12T02:50:35.435Z,0
2016-11-12T02:51:35.524Z,0
2016-11-12T02:52:35.581Z,0
2016-11-12T02:53:35.720Z,0
2016-11-12T02:54:35.704Z,0
2016-11-12T02:55:35.765Z,0
2016-11-12T02:56:36.322Z,0
2016-11-12T02:57:35.872Z,0
2016-11-12T02:58:35.954Z,0
2016-11-12T02:59:35.943Z,0
2016-11-12T03:00:35.977Z,0
2016-11-12T03:01:36.108Z,0
2016-11-12T03:02:36.114Z,0
2016-11-12T03:03:36.246Z,0
2016-11-12T03:04:36.210Z,0
2016-11-12T03:05:36.257Z,0
2016-11-12T03:06:36.303Z,0
2016-11-12T03:07:36.404Z,0
2016-11-12T03:08:36.415Z,0
2016-11-12T03:09:36.592Z,0
2016-11-12T03:10:36.524Z,0
2016-11-12T03:11:36.542Z,0
2016-11-12T03:12:36.582Z,0
2016-11-12T03:13:36.689Z,0
2016-11-12T03:14:36.845Z,0
2016-11-12T03:15:36.782Z,0
2016-11-12T03:16:36.842Z,0
2016-11-12T03:17:36.865Z,0
2016-11-12T03:18:36.979Z,0
2016-11-12T03:19:37.591Z,0
2016-11-12T03:20:37.025Z,0
2016-11-12T03:21:37.132Z,0
2016-11-12T03:22:37.123Z,0
2016-11-12T03:23:37.207Z,0
2016-11-12T03:24:37.370Z,0
2016-11-12T03:25:37.330Z,0
2016-11-12T03:26:37.407Z,0
2016-11-12T03:27:37.367Z,0
2016-11-12T03:28:37.419Z,0
2016-11-12T03:29:37.609Z,0
2016-11-12T03:30:37.582Z,0
2016-11-12T03:31:38.165Z,0
2016-11-12T03:32:38.170Z,0
2016-11-12T03:33:37.762Z,0
2016-11-12T03:34:37.883Z,0
2016-11-12T03:35:37.842Z,0
2016-11-12T03:36:37.891Z,0
2016-11-12T03:37:37.971Z,0
2016-11-12T03:38:37.959Z,0
2016-11-12T03:39:38.037Z,0
2016-11-12T03:40:38.236Z,0
2016-11-12T03:41:38.143Z,0
2016-11-12T03:42:38.182Z,0
2016-11-12T03:43:38.275Z,0
2016-11-12T08:06:09.047Z,0
2016-11-12T08:06:43.669Z,0
2016-11-12T08:07:43.319Z,0
2016-11-12T08:08:43.287Z,0
2016-11-12T08:09:43.320Z,0
2016-11-12T08:10:44.480Z,0
2016-11-12T08:11:43.679Z,0
2016-11-12T08:12:44.052Z,0
2016-11-12T08:13:44.049Z,0
2016-11-12T08:14:43.629Z,0
2016-11-12T08:15:44.657Z,0
2016-11-12T08:16:44.340Z,0
2016-11-12T08:17:43.718Z,0
2016-11-12T08:18:43.767Z,0
2016-11-12T08:19:43.812Z,0
2016-11-12T08:20:43.925Z,0
2016-11-12T08:21:44.066Z,0
2016-11-12T08:22:44.002Z,0
2016-11-12T08:23:44.006Z,0
2016-11-12T08:24:44.608Z,0
2016-11-12T08:25:44.162Z,0
2016-11-12T08:26:45.343Z,0
2016-11-12T08:27:44.745Z,0
2016-11-12T08:28:44.992Z,0
2016-11-12T08:29:44.340Z,0
2016-11-12T08:30:44.916Z,0
2016-11-12T08:31:44.654Z,0
2016-11-12T08:32:45.068Z,0
2016-11-12T08:33:45.105Z,0
2016-11-12T08:34:44.582Z,0
2016-11-12T08:35:44.663Z,0
2016-11-12T08:36:44.873Z,0
2016-11-12T08:37:44.762Z,0
2016-11-12T08:38:45.297Z,0
2016-11-12T08:39:44.852Z,0
2016-11-12T08:40:46.173Z,0
2016-11-12T08:41:44.980Z,0
2016-11-12T08:42:45.159Z,0
2016-11-12T08:43:45.067Z,0
2016-11-12T08:44:45.155Z,0
2016-11-12T08:45:46.295Z,5
2016-11-12T08:46:45.202Z,5
2016-11-12T08:47:46.465Z,5
2016-11-12T08:48:45.294Z,5
2016-11-12T08:49:45.347Z,0
2016-11-12T08:50:45.910Z,0
2016-11-12T08:51:45.427Z,0
2016-11-12T08:52:45.655Z,0
2016-11-12T08:53:46.332Z,5
2016-11-12T08:54:46.409Z,5
2016-11-12T08:55:45.733Z,5
2016-11-12T08:56:46.245Z,5
2016-11-12T08:57:45.848Z,5
2016-11-12T08:58:45.803Z,5
2016-11-12T08:59:46.903Z,0
2016-11-12T09:00:45.969Z,0
2016-11-12T09:01:46.755Z,0
2016-11-12T09:02:46.394Z,0
2016-11-12T09:03:46.699Z,5
2016-11-12T09:04:46.115Z,5
2016-11-12T09:05:47.270Z,5
2016-11-12T09:06:46.226Z,5
2016-11-12T09:07:46.496Z,5
2016-11-12T09:08:46.339Z,5
2016-11-12T09:09:46.445Z,5
2016-11-12T09:10:46.449Z,5
2016-11-12T09:11:46.490Z,5
2016-11-12T09:12:46.774Z,5
2016-11-12T09:13:47.121Z,5
2016-11-12T09:14:46.606Z,10
2016-11-12T09:15:47.719Z,5
2016-11-12T09:16:46.759Z,5
2016-11-12T09:17:46.802Z,5
2016-11-12T09:18:47.031Z,5
2016-11-12T09:19:47.424Z,5
2016-11-12T09:20:48.001Z,5
2016-11-12T09:21:47.122Z,5
2016-11-12T09:22:47.057Z,10
2016-11-12T09:23:47.689Z,10
2016-11-12T09:24:47.183Z,10
2016-11-12T09:25:47.212Z,10
2016-11-12T09:26:47.259Z,10
2016-11-12T09:27:48.151Z,10
2016-11-12T09:28:47.999Z,10
2016-11-12T09:29:47.548Z,10
2016-11-12T09:30:47.525Z,10
2016-11-12T09:31:47.522Z,10
2016-11-12T09:32:47.567Z,10
2016-11-12T09:33:47.699Z,10
2016-11-12T09:34:48.199Z,10
2016-11-12T09:35:47.696Z,10
2016-11-12T09:36:47.727Z,10
2016-11-12T09:37:47.811Z,10
2016-11-12T09:38:48.177Z,5
2016-11-12T09:39:47.935Z,5
2016-11-12T09:40:49.219Z,5
2016-11-12T09:41:48.514Z,10
2016-11-12T09:42:48.098Z,10
2016-11-12T09:43:48.197Z,10
2016-11-12T09:44:48.688Z,10
2016-11-12T09:45:48.726Z,5
2016-11-12T09:46:48.284Z,5
2016-11-12T09:47:48.370Z,10
2016-11-12T09:48:48.475Z,10
2016-11-12T09:49:49.803Z,10
2016-11-12T09:50:48.481Z,10
2016-11-12T09:51:49.121Z,15
2016-11-12T09:52:48.542Z,15
2016-11-12T09:53:50.274Z,15
2016-11-12T09:54:49.207Z,20
2016-11-12T09:55:48.734Z,20
2016-11-12T09:56:48.815Z,20
2016-11-12T09:57:48.876Z,20
2016-11-12T09:58:49.560Z,15
2016-11-12T09:59:49.031Z,20
2016-11-12T10:00:50.717Z,20
2016-11-12T10:01:49.556Z,20
2016-11-12T10:02:49.875Z,15
2016-11-12T10:03:49.662Z,15
2016-11-12T10:04:49.372Z,20
2016-11-12T10:05:49.799Z,25
2016-11-12T10:06:50.297Z,25
2016-11-12T10:07:49.819Z,20
2016-11-12T10:08:49.923Z,25
2016-11-12T10:09:49.784Z,25
2016-11-12T10:10:49.460Z,30
2016-11-12T10:11:49.599Z,25
2016-11-12T10:12:50.103Z,25
2016-11-12T10:13:50.787Z,30
2016-11-12T10:14:50.284Z,30
2016-11-12T10:15:50.277Z,30
2016-11-12T10:16:51.393Z,35
2016-11-12T10:17:50.348Z,40
2016-11-12T10:18:49.925Z,40
2016-11-12T10:19:50.012Z,40
2016-11-12T10:20:50.612Z,45
2016-11-12T10:21:50.569Z,45
2016-11-12T10:22:50.304Z,45
2016-11-12T10:23:50.156Z,40
2016-11-12T10:24:50.889Z,35
2016-11-12T10:25:50.207Z,35
2016-11-12T10:26:50.837Z,35
2016-11-12T10:27:50.327Z,30
2016-11-12T10:28:51.482Z,30
2016-11-12T10:29:51.113Z,30
2016-11-12T10:30:51.047Z,30
2016-11-12T10:31:51.582Z,35
2016-11-12T10:32:50.574Z,35
2016-11-12T10:33:50.619Z,35
2016-11-12T10:34:51.240Z,40
2016-11-12T10:35:51.541Z,50
2016-11-12T10:36:52.386Z,55
2016-11-12T10:37:51.646Z,60
2016-11-12T10:38:50.850Z,55
2016-11-12T10:39:51.631Z,50
2016-11-12T10:40:51.100Z,50
2016-11-12T10:41:51.655Z,50
2016-11-12T10:42:51.133Z,50
2016-11-12T10:43:51.686Z,50
2016-11-12T10:44:51.223Z,50
2016-11-12T10:45:51.923Z,55
2016-11-12T10:46:51.851Z,55
2016-11-12T10:47:51.336Z,55
2016-11-12T10:48:51.365Z,55
2016-11-12T10:49:51.428Z,60
2016-11-12T10:50:52.699Z,60
2016-11-12T10:51:52.044Z,55
2016-11-12T10:52:52.969Z,50
2016-11-12T10:53:52.219Z,50
2016-11-12T10:54:52.479Z,50
2016-11-12T10:55:52.523Z,50
2016-11-12T10:56:52.471Z,40
2016-11-12T10:57:51.859Z,35
2016-11-12T10:58:52.494Z,30
2016-11-12T10:59:52.474Z,30
2016-11-12T11:00:52.784Z,25
2016-11-12T11:01:52.640Z,25
2016-11-12T11:02:53.165Z,30
2016-11-12T11:03:52.470Z,30
2016-11-12T11:04:53.258Z,25
2016-11-12T11:05:52.970Z,30
2016-11-12T11:06:52.301Z,35
2016-11-12T11:07:53.515Z,35
2016-11-12T11:08:52.959Z,35
2016-11-12T11:09:53.782Z,35
2016-11-12T11:10:53.065Z,35
2016-11-12T11:11:53.233Z,35
2016-11-12T11:12:53.342Z,35
2016-11-12T11:13:53.420Z,35
2016-11-12T11:14:52.682Z,35
2016-11-12T11:15:53.483Z,40
2016-11-12T11:16:52.954Z,35
2016-11-12T11:17:54.178Z,35
2016-11-12T11:18:53.442Z,35
2016-11-12T11:19:53.730Z,30
2016-11-12T11:20:53.004Z,30
2016-11-12T11:21:54.093Z,30
2016-11-12T11:22:53.634Z,35
2016-11-12T11:23:53.207Z,35
2016-11-12T11:24:53.252Z,35
2016-11-12T11:25:54.273Z,30
2016-11-12T11:26:55.509Z,30
2016-11-12T11:27:53.371Z,30
2016-11-12T11:28:54.514Z,35
2016-11-12T11:29:53.422Z,35
2016-11-12T11:30:53.592Z,35
2016-11-12T11:31:55.449Z,35
2016-11-12T11:32:53.807Z,35
2016-11-12T11:33:54.985Z,30
2016-11-12T11:34:53.989Z,30
2016-11-12T11:35:55.051Z,30
2016-11-12T11:36:54.372Z,25
2016-11-12T11:37:53.919Z,25
2016-11-12T11:38:54.531Z,25
2016-11-12T11:39:54.676Z,30
2016-11-12T11:40:54.547Z,30
2016-11-12T11:41:55.292Z,35
2016-11-12T11:43:19.737Z,35
2016-11-12T11:43:55.134Z,35
2016-11-12T11:44:54.710Z,35
2016-11-12T11:45:54.245Z,30
2016-11-12T11:46:54.397Z,30
2016-11-12T11:47:54.829Z,35
2016-11-12T11:48:54.384Z,40
2016-11-12T11:49:54.446Z,40
2016-11-12T11:50:54.467Z,35
2016-11-12T11:51:54.631Z,35
2016-11-12T11:52:55.120Z,30
2016-11-12T11:53:54.625Z,30
2016-11-12T11:54:54.716Z,35
2016-11-12T11:55:54.770Z,40
2016-11-12T11:56:55.408Z,40
2016-11-12T11:57:54.855Z,35
2016-11-12T11:58:55.391Z,35
2016-11-12T11:59:54.921Z,30
2016-11-12T12:00:54.996Z,30
2016-11-12T12:01:55.022Z,30
2016-11-12T12:02:55.310Z,30
2016-11-12T12:03:55.681Z,30
2016-11-12T12:04:55.745Z,35
2016-11-12T12:05:55.301Z,40
2016-11-12T12:06:55.316Z,40
2016-11-12T12:07:55.987Z,40
2016-11-12T12:08:55.438Z,40
2016-11-12T12:09:55.485Z,35
2016-11-12T12:10:55.452Z,30
2016-11-12T12:11:55.602Z,30
2016-11-12T12:12:55.696Z,30
2016-11-12T12:13:55.607Z,40
2016-11-12T12:14:55.685Z,55
2016-11-12T12:15:56.297Z,70
2016-11-12T12:16:55.783Z,100
2016-11-12T12:17:55.955Z,105
2016-11-12T12:18:55.895Z,100
2016-11-12T12:19:55.973Z,85
2016-11-12T12:20:56.014Z,65
2016-11-12T12:21:56.116Z,60
2016-11-12T12:22:56.329Z,60
2016-11-12T12:23:56.142Z,55
2016-11-12T12:24:56.190Z,65
2016-11-12T12:25:57.326Z,80
2016-11-12T12:26:56.302Z,95
2016-11-12T12:27:56.427Z,90
2016-11-12T12:28:57.435Z,80
2016-11-12T12:29:56.487Z,80
2016-11-12T12:30:56.539Z,75
2016-11-12T12:31:57.138Z,75
2016-11-12T12:32:56.740Z,75
2016-11-12T12:33:56.606Z,70
2016-11-12T12:34:56.706Z,65
2016-11-12T12:35:56.722Z,65
2016-11-12T12:36:56.813Z,65
2016-11-12T12:37:57.485Z,65
2016-11-12T12:38:56.927Z,70
2016-11-12T12:39:57.458Z,75
2016-11-12T12:40:57.030Z,75
2016-11-12T12:41:57.066Z,75
2016-11-12T12:42:57.173Z,85
2016-11-12T12:43:57.279Z,90
2016-11-12T12:44:58.273Z,95
2016-11-12T12:45:57.198Z,100
2016-11-12T12:46:57.338Z,105
2016-11-12T12:47:57.891Z,105
2016-11-12T12:48:57.587Z,105
2016-11-12T12:49:58.000Z,110
2016-11-12T12:50:57.475Z,100
2016-11-12T12:51:57.577Z,85
2016-11-12T12:52:57.603Z,80
2016-11-12T12:53:57.765Z,80
2016-11-12T12:54:58.291Z,70
2016-11-12T12:55:58.282Z,65
2016-11-12T12:56:57.833Z,60
2016-11-12T12:57:57.909Z,50
2016-11-12T12:58:58.139Z,45
2016-11-12T12:59:58.501Z,50
2016-11-12T13:00:58.006Z,60
2016-11-12T13:01:58.040Z,60
2016-11-12T13:02:58.116Z,60
2016-11-12T13:03:58.825Z,55
2016-11-12T13:04:58.212Z,40
2016-11-12T13:05:59.273Z,35
2016-11-12T13:06:58.333Z,35
2016-11-12T13:07:58.404Z,40
2016-11-12T13:08:58.553Z,35
2016-11-12T13:09:58.515Z,35
2016-11-12T13:10:58.513Z,35
2016-11-12T13:11:58.573Z,35
2016-11-12T13:12:58.652Z,35
2016-11-12T13:13:58.676Z,35
2016-11-12T13:14:58.837Z,40
2016-11-12T13:15:59.319Z,45
2016-11-12T13:16:58.829Z,45
2016-11-12T13:17:58.897Z,45
2016-11-12T13:18:58.941Z,45
2016-11-12T13:19:59.113Z,40
2016-11-12T13:20:59.004Z,40
2016-11-12T13:21:59.114Z,40
2016-11-12T13:22:59.728Z,40
2016-11-12T13:23:59.143Z,40
2016-11-12T13:24:59.298Z,45
2016-11-12T13:25:59.821Z,45
2016-11-12T13:26:59.865Z,45
2016-11-12T13:27:59.409Z,50
2016-11-12T13:28:59.471Z,50
2016-11-12T13:29:59.677Z,50
2016-11-12T13:31:00.124Z,50
2016-11-12T13:31:59.642Z,50
2016-11-12T13:32:59.636Z,50
2016-11-12T13:33:59.716Z,55
2016-11-12T13:34:59.839Z,55
2016-11-12T13:36:00.491Z,55
2016-11-12T13:36:59.830Z,55
2016-11-12T13:37:59.892Z,55
2016-11-12T13:38:59.899Z,55
2016-11-12T13:40:00.106Z,60
2016-11-12T13:41:00.047Z,60
2016-11-12T13:42:00.165Z,60
2016-11-12T13:43:00.099Z,55
2016-11-12T13:44:00.188Z,55
2016-11-12T13:45:00.412Z,60
2016-11-12T13:46:00.287Z,60
2016-11-12T13:47:00.325Z,55
2016-11-12T13:48:00.385Z,55
2016-11-12T13:49:00.442Z,50
2016-11-12T13:50:00.526Z,50
2016-11-12T13:51:00.662Z,50
2016-11-12T13:52:00.637Z,50
2016-11-12T13:53:00.668Z,50
2016-11-12T13:54:01.275Z,55
2016-11-12T13:55:00.756Z,60
2016-11-12T13:56:01.423Z,70
2016-11-12T13:57:01.372Z,80
2016-11-12T13:58:00.881Z,75
2016-11-12T13:59:00.968Z,65
2016-11-12T14:00:01.533Z,60
2016-11-12T14:01:01.283Z,55
2016-11-12T14:02:01.067Z,55
2016-11-12T14:03:01.167Z,55
2016-11-12T14:04:01.169Z,50
2016-11-12T14:05:01.270Z,55
2016-11-12T14:06:01.541Z,60
2016-11-12T14:07:01.313Z,60
2016-11-12T14:08:01.404Z,60
2016-11-12T14:09:01.479Z,65
2016-11-12T14:10:01.519Z,75
2016-11-12T14:11:01.786Z,85
2016-11-12T14:12:01.644Z,85
2016-11-12T14:13:02.119Z,85
2016-11-12T14:14:01.689Z,80
2016-11-12T14:15:01.734Z,75
2016-11-12T14:16:01.852Z,70
2016-11-12T14:17:02.468Z,65
2016-11-12T14:18:01.972Z,65
2016-11-12T14:19:02.006Z,70
2016-11-12T14:20:02.024Z,75
2016-11-12T14:21:02.557Z,75
2016-11-12T14:22:02.195Z,75
2016-11-12T14:23:02.185Z,75
2016-11-12T14:24:02.210Z,80
2016-11-12T14:25:03.313Z,90
2016-11-12T14:26:02.939Z,95
2016-11-12T14:27:03.488Z,105
2016-11-12T14:28:02.449Z,110
2016-11-12T14:29:02.473Z,125
2016-11-12T14:30:02.562Z,140
2016-11-12T14:31:02.599Z,155
2016-11-12T14:32:03.340Z,155
2016-11-12T14:33:02.678Z,160
2016-11-12T14:34:03.238Z,165
2016-11-12T14:35:02.806Z,170
2016-11-12T14:36:02.844Z,160
2016-11-12T14:37:03.465Z,150
2016-11-12T14:38:03.978Z,140
2016-11-12T14:39:02.927Z,135
2016-11-12T14:40:03.024Z,125
2016-11-12T14:41:03.101Z,115
2016-11-12T14:42:03.138Z,120
2016-11-12T14:43:03.468Z,130
2016-11-12T14:44:04.019Z,125
2016-11-12T14:45:03.294Z,120
2016-11-12T14:46:03.455Z,125
2016-11-12T14:47:03.371Z,120
2016-11-12T14:48:03.581Z,120
2016-11-12T14:49:03.477Z,135
2016-11-12T14:50:04.050Z,145
2016-11-12T14:51:03.568Z,155
2016-11-12T14:52:03.674Z,170
2016-11-12T14:53:04.407Z,180
2016-11-12T14:54:03.735Z,185
2016-11-12T14:55:03.780Z,190
2016-11-12T14:56:04.392Z,210
2016-11-12T14:57:03.890Z,210
2016-11-12T14:58:04.578Z,200
2016-11-12T14:59:04.011Z,195
2016-11-12T15:00:04.025Z,180
2016-11-12T15:01:04.132Z,155
2016-11-12T15:02:04.629Z,140
2016-11-12T15:03:04.426Z,135
2016-11-12T15:04:04.271Z,135
2016-11-12T15:05:04.849Z,125
2016-11-12T15:06:04.426Z,110
2016-11-12T15:07:04.399Z,95
2016-11-12T15:08:05.076Z,100
2016-11-12T15:09:04.500Z,105
2016-11-12T15:10:04.532Z,105
2016-11-12T15:11:04.610Z,110
2016-11-12T15:12:04.609Z,115
2016-11-12T15:13:04.859Z,120
2016-11-12T15:14:04.771Z,125
2016-11-12T15:15:04.847Z,130
2016-11-12T15:16:04.872Z,105
2016-11-12T15:17:04.892Z,100
2016-11-12T15:18:04.918Z,100
2016-11-12T15:19:05.248Z,95
2016-11-12T15:20:05.053Z,105
2016-11-12T15:21:05.123Z,120
2016-11-12T15:22:05.191Z,130
2016-11-12T15:23:05.216Z,125
2016-11-12T15:24:05.415Z,115
2016-11-12T15:25:05.873Z,110
2016-11-12T15:26:05.354Z,110
2016-11-12T15:27:05.419Z,105
2016-11-12T15:28:05.461Z,105
2016-11-12T15:29:05.615Z,110
2016-11-12T15:30:06.095Z,105
2016-11-12T15:31:06.203Z,100
2016-11-12T15:32:05.653Z,95
2016-11-12T15:33:06.268Z,90
2016-11-12T15:34:05.865Z,90
2016-11-12T15:35:05.806Z,95
2016-11-12T15:36:06.394Z,100
2016-11-12T15:37:05.932Z,100
2016-11-12T15:38:06.521Z,100
2016-11-12T15:39:06.243Z,105
2016-11-12T15:40:06.078Z,95
2016-11-12T15:41:06.147Z,105
2016-11-12T15:42:06.176Z,105
2016-11-12T15:43:06.200Z,105
2016-11-12T15:44:06.424Z,110
2016-11-12T15:45:06.349Z,125
2016-11-12T15:46:06.379Z,145
2016-11-12T15:47:06.439Z,160
2016-11-12T15:48:06.459Z,130
2016-11-12T15:49:06.544Z,115
2016-11-12T15:50:06.661Z,105
2016-11-12T15:51:06.671Z,105
2016-11-12T15:52:06.684Z,110
2016-11-12T15:53:06.769Z,120
2016-11-12T15:54:06.832Z,130
2016-11-12T15:55:06.996Z,110
2016-11-12T15:56:06.875Z,100
2016-11-12T15:57:07.507Z,105
2016-11-12T15:58:06.949Z,105
2016-11-12T15:59:07.609Z,115
2016-11-12T16:00:07.257Z,125
2016-11-12T16:01:07.115Z,120
2016-11-12T16:02:07.214Z,130
2016-11-12T16:03:07.793Z,140
2016-11-12T16:04:07.331Z,155
2016-11-12T16:05:07.530Z,140
2016-11-12T16:06:07.403Z,135
2016-11-12T16:07:07.486Z,135
2016-11-12T16:08:07.536Z,135
2016-11-12T16:09:07.578Z,130
2016-11-12T16:10:07.681Z,125
2016-11-12T16:11:07.695Z,120
2016-11-12T16:12:07.761Z,115
2016-11-12T16:13:07.772Z,110
2016-11-12T16:14:07.804Z,110
2016-11-12T16:15:08.494Z,115
2016-11-12T16:16:07.880Z,110
2016-11-12T16:17:07.982Z,110
2016-11-12T16:18:08.038Z,110
2016-11-12T16:19:08.148Z,110
2016-11-12T16:20:08.156Z,105
2016-11-12T16:21:08.223Z,100
2016-11-12T16:22:08.212Z,110
2016-11-12T16:23:08.253Z,110
2016-11-12T16:24:08.307Z,110
2016-11-12T16:25:08.369Z,110
2016-11-12T16:26:08.604Z,110
2016-11-12T16:27:08.979Z,105
2016-11-12T16:28:09.520Z,120
2016-11-12T16:29:08.601Z,140
2016-11-12T16:30:08.668Z,125
2016-11-12T16:31:08.756Z,135
2016-11-12T16:32:08.703Z,115
2016-11-12T16:33:08.744Z,115
2016-11-12T16:34:08.847Z,120
2016-11-12T16:35:08.824Z,130
2016-11-12T16:36:09.117Z,125
2016-11-12T16:37:08.963Z,130
2016-11-12T16:38:09.055Z,135
2016-11-12T16:39:09.634Z,130
2016-11-12T16:40:09.124Z,120
2016-11-12T16:41:09.309Z,125
2016-11-12T16:42:09.741Z,115
2016-11-12T16:43:09.335Z,110
2016-11-12T16:44:09.879Z,105
2016-11-12T16:45:09.388Z,105
2016-11-12T16:46:09.448Z,100
2016-11-12T16:47:09.576Z,90
2016-11-12T16:48:09.520Z,100
2016-11-12T16:49:09.597Z,105
2016-11-12T16:50:10.164Z,105
2016-11-12T16:51:09.711Z,120
2016-11-12T16:52:09.957Z,115
2016-11-12T16:53:09.818Z,115
2016-11-12T16:54:09.866Z,120
2016-11-12T16:55:09.866Z,125
2016-11-12T16:56:09.943Z,125
2016-11-12T16:57:10.144Z,115
2016-11-12T16:58:10.013Z,110
2016-11-12T16:59:10.119Z,110
2016-11-12T17:00:10.214Z,105
2016-11-12T17:01:10.211Z,95
2016-11-12T17:02:10.994Z,100
2016-11-12T17:03:10.829Z,105
2016-11-12T17:04:10.830Z,115
2016-11-12T17:05:10.974Z,110
2016-11-12T17:06:10.448Z,95
2016-11-12T17:07:10.638Z,90
2016-11-12T17:08:10.587Z,90
2016-11-12T17:09:10.546Z,85
2016-11-12T17:10:11.438Z,85
2016-11-12T17:11:11.218Z,95
2016-11-12T17:12:10.747Z,85
2016-11-12T17:13:10.907Z,80
2016-11-12T17:14:10.908Z,90
2016-11-12T17:15:11.488Z,95
2016-11-12T17:16:12.027Z,90
2016-11-12T17:17:11.639Z,90
2016-11-12T17:18:11.163Z,85
2016-11-12T17:19:11.148Z,80
2016-11-12T17:20:11.151Z,80
2016-11-12T17:21:11.161Z,75
2016-11-12T17:22:11.305Z,70
2016-11-12T17:23:11.451Z,65
2016-11-12T17:24:11.343Z,65
2016-11-12T17:25:11.392Z,75
2016-11-12T17:26:12.267Z,80
2016-11-12T17:27:11.504Z,80
2016-11-12T17:28:11.683Z,80
2016-11-12T17:29:11.616Z,80
2016-11-12T17:30:12.229Z,80
2016-11-12T17:31:11.721Z,80
2016-11-12T17:32:11.760Z,80
2016-11-12T17:33:11.977Z,90
2016-11-12T17:34:11.854Z,95
2016-11-12T17:35:12.482Z,100
2016-11-12T17:36:11.996Z,105
2016-11-12T17:37:12.014Z,100
2016-11-12T17:38:12.302Z,90
2016-11-12T17:39:12.689Z,85
2016-11-12T17:40:12.162Z,80
2016-11-12T17:41:12.202Z,75
2016-11-12T17:42:12.310Z,70
2016-11-12T17:43:12.316Z,70
2016-11-12T17:44:12.538Z,65
2016-11-12T17:45:12.405Z,65
2016-11-12T17:46:12.473Z,65
2016-11-12T17:47:12.524Z,65
2016-11-12T17:48:12.593Z,60
2016-11-12T17:49:12.858Z,60
2016-11-12T17:50:12.675Z,65
2016-11-12T17:51:12.711Z,60
2016-11-12T17:52:12.811Z,55
2016-11-12T17:53:12.849Z,60
2016-11-12T17:54:12.996Z,70
2016-11-12T17:55:12.914Z,70
2016-11-12T17:56:13.050Z,65
2016-11-12T17:57:13.054Z,55
2016-11-12T17:58:13.102Z,55
2016-11-12T17:59:13.345Z,55
2016-11-12T18:00:13.225Z,55
2016-11-12T18:01:13.244Z,55
2016-11-12T18:02:13.311Z,60
2016-11-12T18:03:13.363Z,65
2016-11-12T18:04:13.486Z,70
2016-11-12T18:05:14.009Z,75
2016-11-12T18:06:14.067Z,80
2016-11-12T18:07:13.549Z,85
2016-11-12T18:08:14.234Z,90
2016-11-12T18:09:13.775Z,85
2016-11-12T18:10:13.723Z,90
2016-11-12T18:11:13.765Z,75
2016-11-12T18:12:14.321Z,70
2016-11-12T18:13:13.824Z,70
2016-11-12T18:14:13.930Z,70
2016-11-12T18:15:14.043Z,70
2016-11-12T18:16:14.561Z,65
2016-11-12T18:17:14.041Z,55
2016-11-12T18:18:14.109Z,55
2016-11-12T18:19:14.677Z,55
2016-11-12T18:20:14.423Z,55
2016-11-12T18:21:14.293Z,55
2016-11-12T18:22:14.353Z,55
2016-11-12T18:23:14.382Z,60
2016-11-12T18:24:14.390Z,55
2016-11-12T18:25:14.659Z,55
2016-11-12T18:26:14.492Z,60
2016-11-12T18:27:14.545Z,60
2016-11-12T18:28:14.613Z,60
2016-11-12T18:29:14.675Z,65
2016-11-12T18:30:15.310Z,60
2016-11-12T18:31:14.778Z,60
2016-11-12T18:32:14.850Z,60
2016-11-12T18:33:14.874Z,60
2016-11-12T18:34:14.859Z,55
2016-11-12T18:35:15.579Z,50
2016-11-12T18:36:15.008Z,55
2016-11-12T18:37:15.048Z,55
2016-11-12T18:38:15.122Z,55
2016-11-12T18:39:15.717Z,50
2016-11-12T18:40:15.211Z,50
2016-11-12T18:41:15.522Z,45
2016-11-12T18:42:15.371Z,40